Time;durP1;ratioP1;P1;durP2;ratioP2;P2;SDS_P1;SDS_P2;PMS_P1;PMS_P2;Temp;Humidity;BMP_temperature;BMP_pressure;BME280_temperature;BME280_humidity;BME280_pressure;Samples;Min_cycle;Max_cycle;Signal;HPM_P1;HPM_P2
2023/09/26 00:00:21;;;;;;;;;;;;;;;21.03;53.83;101985.72;4892983;29;6098;-68
2023/09/26 00:02:49;;;;;;;;;;;;;;;21.03;54.14;101992.22;4900204;29;2246;-68
2023/09/26 00:05:15;;;;;;;;;;;;;;;21.02;53.86;101989.94;4920492;29;2159;-69
2023/09/26 00:07:42;;;;;;;;;;;;;;;21.02;53.89;101995.72;4894286;29;2180;-69
2023/09/26 00:10:10;;;;;;;;;;;;;;;21.01;53.76;101986.31;4918620;29;2289;-69
2023/09/26 00:12:37;;;;;;;;;;;;;;;21.01;53.80;101988.47;4911488;29;1786;-69
2023/09/26 00:15:04;;;;;;;;;;;;;;;21.01;54.03;101989.22;4919978;29;2167;-68
2023/09/26 00:17:31;;;;;;;;;;;;;;;21.00;54.02;101981.19;4911087;29;2245;-69
2023/09/26 00:19:57;;;;;;;;;;;;;;;21.00;53.84;101973.28;4917239;29;2171;-69
2023/09/26 00:22:24;;;;;;;;;;;;;;;21.00;54.03;101978.31;4920686;29;1915;-69
2023/09/26 00:24:51;;;;;;;;;;;;;;;21.00;54.00;101969.66;4918097;29;2182;-69
2023/09/26 00:27:18;;;;;;;;;;;;;;;20.98;54.01;101973.19;4918362;29;2316;-69
2023/09/26 00:29:44;;;;;;;;;;;;;;;20.98;53.99;101981.84;4910914;29;2072;-69
2023/09/26 00:32:11;;;;;;;;;;;;;;;20.98;53.58;101978.19;4892277;29;7381;-69
2023/09/26 00:34:38;;;;;;;;;;;;;;;20.98;53.90;101969.53;4916063;29;2231;-69
2023/09/26 00:37:04;;;;;;;;;;;;;;;20.98;53.71;101973.19;4919257;29;2198;-69
2023/09/26 00:39:33;;;;;;;;;;;;;;;20.98;53.70;101966.66;4892864;29;2086;-69
2023/09/26 00:41:59;;;;;;;;;;;;;;;20.97;53.88;101965.91;4896055;29;2158;-69
2023/09/26 00:44:25;;;;;;;;;;;;;;;20.97;53.69;101963.03;4918725;29;2666;-69
2023/09/26 00:46:52;;;;;;;;;;;;;;;20.97;53.88;101973.81;4900284;29;2284;-69
2023/09/26 00:49:18;;;;;;;;;;;;;;;20.97;53.88;101976.69;4891948;29;2262;-69
2023/09/26 00:51:45;;;;;;;;;;;;;;;20.97;53.73;101976.69;4918273;29;1648;-69
2023/09/26 00:54:11;;;;;;;;;;;;;;;20.96;53.92;101975.16;4882349;29;2296;-68
2023/09/26 00:56:38;;;;;;;;;;;;;;;20.95;53.83;101970.81;4899698;29;2259;-69
2023/09/26 00:59:05;;;;;;;;;;;;;;;20.96;53.74;101970.19;4897295;29;1951;-69
2023/09/26 01:01:32;;;;;;;;;;;;;;;20.96;53.78;101975.16;4913021;29;6061;-69
2023/09/26 01:03:59;;;;;;;;;;;;;;;20.96;53.69;101975.16;4907372;29;2227;-67
2023/09/26 01:06:25;;;;;;;;;;;;;;;20.95;53.83;101973.69;4882799;29;2444;-66
2023/09/26 01:08:52;;;;;;;;;;;;;;;20.95;53.61;101967.91;4916452;29;2120;-67
2023/09/26 01:11:18;;;;;;;;;;;;;;;20.95;53.67;101956.41;4892209;29;2279;-67
2023/09/26 01:13:45;;;;;;;;;;;;;;;20.95;53.73;101956.41;4914257;29;2311;-67
2023/09/26 01:16:15;;;;;;;;;;;;;;;20.93;53.66;101954.88;4899259;29;1641;-68
2023/09/26 01:18:42;;;;;;;;;;;;;;;20.93;53.87;101954.88;4913828;29;2178;-67
2023/09/26 01:21:09;;;;;;;;;;;;;;;20.93;53.58;101966.41;4918146;29;2265;-67
2023/09/26 01:23:41;;;;;;;;;;;;;;;20.92;53.60;101953.41;4914254;29;2444;-67
2023/09/26 01:26:08;;;;;;;;;;;;;;;20.91;53.84;101951.91;4910153;29;2174;-67
2023/09/26 01:28:35;;;;;;;;;;;;;;;20.91;53.64;101951.91;4894099;29;2264;-67
2023/09/26 01:31:01;;;;;;;;;;;;;;;20.92;53.60;101953.41;4904667;29;6179;-67
2023/09/26 01:33:28;;;;;;;;;;;;;;;20.91;53.57;101946.16;4917081;29;2340;-67
2023/09/26 01:35:54;;;;;;;;;;;;;;;20.92;53.77;101941.88;4917184;29;2171;-67
2023/09/26 01:38:22;;;;;;;;;;;;;;;20.92;53.55;101952.66;4917719;29;2331;-67
2023/09/26 01:40:49;;;;;;;;;;;;;;;20.91;53.67;101951.91;4920998;29;2237;-65
2023/09/26 01:43:15;;;;;;;;;;;;;;;20.89;53.47;101946.03;4896145;29;2112;-69
2023/09/26 01:45:42;;;;;;;;;;;;;;;20.90;53.60;101947.50;4894471;29;2270;-68
2023/09/26 01:48:09;;;;;;;;;;;;;;;20.90;53.64;101950.41;4918501;29;2226;-67
2023/09/26 01:54:29;;;;;;;;;;;;;;;20.90;53.44;101949.66;4909425;29;2399;-67
2023/09/26 01:56:55;;;;;;;;;;;;;;;20.88;53.65;101938.75;4884283;29;2487;-67
2023/09/26 01:59:22;;;;;;;;;;;;;;;20.88;53.38;101941.63;4913114;29;2248;-67
2023/09/26 02:01:48;;;;;;;;;;;;;;;20.88;53.58;101941.63;4897454;29;6061;-67
2023/09/26 02:04:15;;;;;;;;;;;;;;;20.88;53.32;101935.88;4921892;29;1975;-67
2023/09/26 02:06:41;;;;;;;;;;;;;;;20.87;53.36;101943.00;4902766;29;2685;-67
2023/09/26 02:09:08;;;;;;;;;;;;;;;20.87;53.57;101934.38;4894678;29;2200;-67
2023/09/26 02:11:34;;;;;;;;;;;;;;;20.88;53.44;101935.88;4917438;29;1917;-67
2023/09/26 02:14:00;;;;;;;;;;;;;;;20.87;53.65;101942.28;4913505;29;2249;-68
2023/09/26 02:16:27;;;;;;;;;;;;;;;20.87;53.47;101957.41;4897182;29;2271;-67
2023/09/26 02:18:53;;;;;;;;;;;;;;;20.87;53.55;101948.03;4921816;29;1713;-68
2023/09/26 02:21:20;;;;;;;;;;;;;;;20.86;53.29;101941.50;4896347;29;1676;-68
2023/09/26 02:23:46;;;;;;;;;;;;;;;20.85;53.48;101951.53;4918838;29;2246;-68
2023/09/26 02:26:16;;;;;;;;;;;;;;;20.86;53.45;101950.13;4919686;29;2178;-68
2023/09/26 02:28:43;;;;;;;;;;;;;;;20.86;53.47;101952.28;4898096;29;1623;-67
2023/09/26 02:31:13;;;;;;;;;;;;;;;20.86;53.41;101943.63;4921525;29;6088;-68
2023/09/26 02:33:40;;;;;;;;;;;;;;;20.85;53.44;101948.66;4921670;29;1789;-68
2023/09/26 02:36:06;;;;;;;;;;;;;;;20.85;53.53;101942.88;4917790;29;2292;-68
2023/09/26 02:38:33;;;;;;;;;;;;;;;20.84;53.23;101947.13;4922221;29;2352;-68
2023/09/26 02:40:59;;;;;;;;;;;;;;;20.84;53.48;101947.13;4922344;29;1709;-68
2023/09/26 02:43:26;;;;;;;;;;;;;;;20.84;53.15;101952.88;4915125;29;2234;-68
2023/09/26 02:45:52;;;;;;;;;;;;;;;20.85;53.16;101953.66;4897617;29;2278;-68
2023/09/26 02:48:19;;;;;;;;;;;;;;;20.83;53.43;101953.53;4922270;29;1853;-68
2023/09/26 02:50:45;;;;;;;;;;;;;;;20.83;53.19;101948.53;4918976;29;2040;-68
2023/09/26 02:53:12;;;;;;;;;;;;;;;20.82;53.22;101938.38;4920289;29;2238;-68
2023/09/26 02:55:39;;;;;;;;;;;;;;;20.83;53.11;101950.66;4919152;29;2190;-68
2023/09/26 02:58:05;;;;;;;;;;;;;;;20.82;53.07;101949.91;4895619;29;2489;-68
2023/09/26 03:00:32;;;;;;;;;;;;;;;20.82;53.19;101946.25;4895665;29;6237;-68
2023/09/26 03:03:00;;;;;;;;;;;;;;;20.82;53.19;101944.16;4920690;29;2293;-69
2023/09/26 03:05:27;;;;;;;;;;;;;;;20.81;53.33;101948.38;4919725;29;2227;-68
2023/09/26 03:07:53;;;;;;;;;;;;;;;20.80;53.28;101938.25;4921474;29;1670;-67
2023/09/26 03:10:20;;;;;;;;;;;;;;;20.80;52.94;101949.78;4922043;29;1701;-68
2023/09/26 03:12:46;;;;;;;;;;;;;;;20.80;53.03;101946.91;4917329;29;2343;-67
2023/09/26 03:15:14;;;;;;;;;;;;;;;20.80;53.21;101951.88;4899928;29;2178;-67
2023/09/26 03:17:41;;;;;;;;;;;;;;;20.80;53.18;101952.66;4918191;29;1951;-68
2023/09/26 03:20:11;;;;;;;;;;;;;;;20.79;53.21;101951.13;4920749;29;2227;-67
2023/09/26 03:22:37;;;;;;;;;;;;;;;20.78;53.11;101949.66;4893102;29;2223;-67
2023/09/26 03:25:05;;;;;;;;;;;;;;;20.79;52.98;101942.50;4898053;29;2204;-68
2023/09/26 03:27:32;;;;;;;;;;;;;;;20.79;52.92;101953.28;4915238;29;2365;-67
2023/09/26 03:29:58;;;;;;;;;;;;;;;20.79;53.14;101950.41;4888885;29;1715;-67
2023/09/26 03:32:24;;;;;;;;;;;;;;;20.78;52.97;101946.78;4911211;29;6225;-67
2023/09/26 03:34:52;;;;;;;;;;;;;;;20.77;52.89;101942.38;4902783;29;1687;-67
2023/09/26 03:37:18;;;;;;;;;;;;;;;20.77;52.87;101936.63;4910051;29;2251;-67
2023/09/26 03:39:46;;;;;;;;;;;;;;;20.77;52.81;101930.84;4897626;29;2198;-67
2023/09/26 03:42:12;;;;;;;;;;;;;;;20.76;52.95;101923.63;4919739;29;2273;-67
2023/09/26 03:44:41;;;;;;;;;;;;;;;20.77;52.83;101919.34;4915091;29;2319;-67
2023/09/26 03:47:08;;;;;;;;;;;;;;;20.76;52.97;101931.50;4914616;29;2378;-67
2023/09/26 03:49:34;;;;;;;;;;;;;;;20.76;52.71;101929.38;4919423;29;2202;-67
2023/09/26 03:52:01;;;;;;;;;;;;;;;20.74;53.03;101920.59;4917254;29;2464;-67
2023/09/26 03:54:27;;;;;;;;;;;;;;;20.74;52.77;101920.59;4918300;29;2217;-67
2023/09/26 03:56:53;;;;;;;;;;;;;;;20.74;52.75;101926.38;4920118;29;2262;-67
2023/09/26 03:59:20;;;;;;;;;;;;;;;20.73;52.61;101924.09;4916057;29;2276;-67
2023/09/26 04:01:47;;;;;;;;;;;;;;;20.74;52.74;101919.88;4907062;29;6063;-67
2023/09/26 04:04:14;;;;;;;;;;;;;;;20.75;52.56;101916.34;4915053;29;2404;-67
2023/09/26 04:06:41;;;;;;;;;;;;;;;20.75;52.53;101922.09;4917436;29;2254;-67
2023/09/26 04:09:08;;;;;;;;;;;;;;;20.80;52.40;101912.34;4920216;29;2428;-67
2023/09/26 04:11:35;;;;;;;;;;;;;;;20.81;52.58;101915.97;4918787;29;2313;-67
2023/09/26 04:14:02;;;;;;;;;;;;;;;20.82;53.11;101915.34;4920729;29;2315;-67
2023/09/26 04:16:28;;;;;;;;;;;;;;;20.85;52.92;101914.09;4920348;29;1700;-67
2023/09/26 04:18:55;;;;;;;;;;;;;;;20.85;53.36;101907.59;4920399;29;2108;-66
2023/09/26 04:21:21;;;;;;;;;;;;;;;20.83;53.24;101911.09;4919125;29;2654;-68
2023/09/26 04:23:48;;;;;;;;;;;;;;;20.82;53.40;101909.59;4918366;29;2297;-67
2023/09/26 04:26:15;;;;;;;;;;;;;;;20.82;53.19;101898.09;4917621;29;2664;-68
2023/09/26 04:28:41;;;;;;;;;;;;;;;20.82;53.58;101898.09;4918227;29;2253;-68
2023/09/26 04:31:12;;;;;;;;;;;;;;;20.83;53.45;101905.34;4919690;29;6219;-68
2023/09/26 04:33:39;;;;;;;;;;;;;;;20.85;53.68;101891.06;4919944;29;2224;-67
2023/09/26 04:36:05;;;;;;;;;;;;;;;20.84;53.69;101895.31;4917974;29;2718;-69
2023/09/26 04:38:32;;;;;;;;;;;;;;;20.82;53.84;101895.22;4918652;29;2241;-68
2023/09/26 04:41:02;;;;;;;;;;;;;;;20.81;53.47;101893.69;4918888;29;2201;-69
2023/09/26 04:43:29;;;;;;;;;;;;;;;20.84;53.54;101897.44;4919386;29;1980;-68
2023/09/26 04:45:56;;;;;;;;;;;;;;;20.85;53.70;101902.59;4918755;29;2572;-68
2023/09/26 04:48:23;;;;;;;;;;;;;;;20.85;53.62;101902.59;4919339;29;1787;-69
2023/09/26 04:50:49;;;;;;;;;;;;;;;20.86;53.88;101901.19;4919465;29;1904;-69
2023/09/26 04:53:16;;;;;;;;;;;;;;;20.86;53.94;101898.31;4919739;29;1685;-68
2023/09/26 04:55:42;;;;;;;;;;;;;;;20.87;53.65;101904.84;4918333;29;2217;-69
2023/09/26 04:58:09;;;;;;;;;;;;;;;20.88;53.81;101894.81;4919676;29;2119;-68
2023/09/26 05:00:39;;;;;;;;;;;;;;;20.88;53.85;101901.31;4918351;29;6142;-68
2023/09/26 05:03:05;;;;;;;;;;;;;;;20.87;53.75;101891.19;4919649;29;1915;-68
2023/09/26 05:05:32;;;;;;;;;;;;;;;20.88;53.91;101900.56;4917033;29;2139;-68
2023/09/26 05:07:58;;;;;;;;;;;;;;;20.88;54.01;101889.06;4915902;29;2189;-68
2023/09/26 05:10:25;;;;;;;;;;;;;;;20.87;53.98;101899.09;4913551;29;2144;-68
2023/09/26 05:12:51;;;;;;;;;;;;;;;20.87;53.85;101891.19;4920030;29;1701;-68
2023/09/26 05:15:18;;;;;;;;;;;;;;;20.88;54.10;101891.94;4919797;29;2153;-68
2023/09/26 05:17:48;;;;;;;;;;;;;;;20.87;53.89;101891.19;4920875;29;2277;-68
2023/09/26 05:20:15;;;;;;;;;;;;;;;20.88;54.12;101895.56;4923094;29;1748;-68
2023/09/26 05:22:45;;;;;;;;;;;;;;;20.87;53.93;101885.44;4922780;29;1726;-68
2023/09/26 05:25:12;;;;;;;;;;;;;;;20.88;54.15;101883.28;4923516;29;1970;-68
2023/09/26 05:27:38;;;;;;;;;;;;;;;20.88;53.93;101889.06;4921225;29;2095;-68
2023/09/26 05:30:05;;;;;;;;;;;;;;;20.87;54.05;101899.81;4921989;29;6373;-68
2023/09/26 05:32:32;;;;;;;;;;;;;;;20.87;53.87;101894.06;4922995;29;2168;-68
2023/09/26 05:34:59;;;;;;;;;;;;;;;20.86;53.97;101892.56;4921824;29;2107;-68
2023/09/26 05:37:25;;;;;;;;;;;;;;;20.86;53.96;101892.56;4921082;29;2112;-68
2023/09/26 05:39:52;;;;;;;;;;;;;;;20.87;54.33;101891.19;4922086;29;2092;-68
2023/09/26 05:42:18;;;;;;;;;;;;;;;20.87;54.46;101887.56;4922223;29;2683;-68
2023/09/26 05:44:45;;;;;;;;;;;;;;;20.87;54.16;101899.09;4921560;29;2136;-68
2023/09/26 05:47:11;;;;;;;;;;;;;;;20.87;54.24;101894.06;4921181;29;2349;-68
2023/09/26 05:49:37;;;;;;;;;;;;;;;20.87;54.25;101910.59;4921901;29;1653;-68
2023/09/26 05:52:04;;;;;;;;;;;;;;;20.86;54.32;101906.94;4921612;29;2008;-68
2023/09/26 05:54:31;;;;;;;;;;;;;;;20.86;54.20;101915.59;4918978;29;1831;-68
2023/09/26 05:56:57;;;;;;;;;;;;;;;20.86;54.22;101912.72;4921368;29;2218;-63
2023/09/26 05:59:24;;;;;;;;;;;;;;;20.86;54.63;101918.47;4919309;29;2226;-74
2023/09/26 06:01:50;;;;;;;;;;;;;;;20.86;54.26;101917.72;4920971;29;6694;-73
2023/09/26 06:04:17;;;;;;;;;;;;;;;20.86;54.47;101921.34;4920547;29;2247;-74
2023/09/26 06:06:43;;;;;;;;;;;;;;;20.86;54.58;101915.59;4920031;29;2523;-74
2023/09/26 06:09:10;;;;;;;;;;;;;;;20.85;54.41;101916.97;4921720;29;2308;-73
2023/09/26 06:11:36;;;;;;;;;;;;;;;20.86;54.60;101914.84;4922409;29;1663;-72
2023/09/26 06:14:03;;;;;;;;;;;;;;;20.85;54.57;101914.09;4921882;29;2143;-72
2023/09/26 06:16:29;;;;;;;;;;;;;;;20.84;54.73;101912.56;4923198;29;1632;-72
2023/09/26 06:18:56;;;;;;;;;;;;;;;20.83;54.85;101916.84;4922024;29;2171;-73
2023/09/26 06:21:23;;;;;;;;;;;;;;;20.83;54.80;101922.59;4919462;29;2198;-73
2023/09/26 06:23:49;;;;;;;;;;;;;;;20.83;54.80;101916.84;4922403;29;1968;-73
2023/09/26 06:26:16;;;;;;;;;;;;;;;20.83;54.85;101921.88;4920798;29;2059;-73
2023/09/26 06:28:42;;;;;;;;;;;;;;;20.83;54.90;101921.88;4921689;29;1572;-73
2023/09/26 06:31:09;;;;;;;;;;;;;;;20.83;55.35;101910.34;4921038;29;7811;-72
2023/09/26 06:33:36;;;;;;;;;;;;;;;20.83;55.14;101916.84;4920183;29;2380;-72
2023/09/26 06:36:12;;;;;;;;;;;;;;;20.83;55.24;101911.09;4899473;29;2605;-74
2023/09/26 06:38:38;;;;;;;;;;;;;;;20.83;55.46;101907.47;4919936;29;2128;-74
2023/09/26 06:41:05;;;;;;;;;;;;;;;20.83;54.96;101910.34;4922028;29;1680;-74
2023/09/26 06:43:32;;;;;;;;;;;;;;;20.82;55.21;101915.34;4920820;29;2283;-74
2023/09/26 06:46:05;;;;;;;;;;;;;;;20.84;55.22;101917.59;4920526;29;2240;-74
2023/09/26 06:48:34;;;;;;;;;;;;;;;20.83;55.42;101916.09;4920063;29;2285;-74
2023/09/26 06:51:01;;;;;;;;;;;;;;;20.61;57.01;101901.81;4920503;29;2134;-73
2023/09/26 06:53:28;;;;;;;;;;;;;;;20.12;60.48;101904.50;4902153;29;1594;-74
2023/09/26 06:56:04;;;;;;;;;;;;;;;19.92;61.80;101906.81;4921310;29;1719;-73
2023/09/26 06:58:30;;;;;;;;;;;;;;;19.84;62.60;101909.16;4917612;29;2242;-74
2023/09/26 07:00:57;;;;;;;;;;;;;;;19.74;63.25;101906.38;4919828;29;6257;-76
2023/09/26 07:03:27;;;;;;;;;;;;;;;20.17;61.87;101899.75;4920240;29;2733;-76
2023/09/26 07:05:54;;;;;;;;;;;;;;;20.42;60.84;101907.81;4919257;29;2222;-77
2023/09/26 07:08:20;;;;;;;;;;;;;;;20.59;59.86;101907.47;4921152;29;2000;-77
2023/09/26 07:10:47;;;;;;;;;;;;;;;20.61;59.51;101906.84;4920586;29;1794;-77
2023/09/26 07:13:13;;;;;;;;;;;;;;;20.62;59.13;101911.97;4921590;29;1634;-77
2023/09/26 07:16:00;;;;;;;;;;;;;;;20.65;58.94;101907.84;4920622;29;1655;-77
2023/09/26 07:18:26;;;;;;;;;;;;;;;20.66;59.01;101908.56;4922026;29;1560;-77
2023/09/26 07:20:53;;;;;;;;;;;;;;;20.67;58.74;101922.34;4902630;29;1554;-77
2023/09/26 07:23:19;;;;;;;;;;;;;;;20.69;58.35;101913.09;4904053;29;1804;-77
2023/09/26 07:25:47;;;;;;;;;;;;;;;20.70;58.42;101914.59;4921201;29;1923;-77
2023/09/26 07:28:13;;;;;;;;;;;;;;;20.71;58.23;101919.00;4920416;29;1647;-77
2023/09/26 07:30:40;;;;;;;;;;;;;;;20.67;58.20;101910.84;4918939;29;6150;-79
2023/09/26 07:33:06;;;;;;;;;;;;;;;20.34;60.56;101910.94;4919857;29;2645;-76
2023/09/26 07:35:33;;;;;;;;;;;;;;;20.20;60.79;101910.78;4919040;29;1783;-77
2023/09/26 07:37:59;;;;;;;;;;;;;;;20.43;60.23;101910.06;4913865;29;2171;-76
2023/09/26 07:40:26;;;;;;;;;;;;;;;20.56;59.64;101913.69;4920204;29;2178;-74
2023/09/26 07:42:55;;;;;;;;;;;;;;;20.53;59.78;101906.31;4918218;29;2257;-74
2023/09/26 07:45:22;;;;;;;;;;;;;;;20.47;60.62;101910.28;4919497;29;2121;-74
2023/09/26 07:47:48;;;;;;;;;;;;;;;20.40;61.66;101914.16;4914369;29;2314;-74
2023/09/26 07:50:15;;;;;;;;;;;;;;;20.40;62.00;101922.06;4917067;29;2210;-74
2023/09/26 07:52:42;;;;;;;;;;;;;;;20.40;61.91;101924.94;4919467;29;2586;-74
2023/09/26 07:55:09;;;;;;;;;;;;;;;20.41;61.76;101921.44;4919731;29;2155;-75
2023/09/26 07:57:36;;;;;;;;;;;;;;;20.43;62.33;101915.81;4917914;29;2158;-75
2023/09/26 08:00:03;;;;;;;;;;;;;;;20.41;62.65;101918.56;4915946;29;2186;-74
2023/09/26 08:02:32;;;;;;;;;;;;;;;20.43;62.40;101921.56;4919070;29;6244;-75
2023/09/26 08:04:59;;;;;;;;;;;;;;;20.46;62.63;101914.56;4919826;29;1910;-74
2023/09/26 08:07:25;;;;;;;;;;;;;;;20.46;62.40;101911.69;4920515;29;2212;-75
2023/09/26 08:09:52;;;;;;;;;;;;;;;20.53;62.32;101912.06;4920578;29;1837;-74
2023/09/26 08:12:19;;;;;;;;;;;;;;;20.53;62.20;101907.06;4919024;29;2218;-74
2023/09/26 08:14:45;;;;;;;;;;;;;;;20.58;62.19;101913.84;4915544;29;2229;-75
2023/09/26 08:17:12;;;;;;;;;;;;;;;20.61;62.40;101921.22;4918403;29;2064;-75
2023/09/26 08:19:38;;;;;;;;;;;;;;;20.56;62.00;101922.31;4915617;29;2424;-72
2023/09/26 08:22:04;;;;;;;;;;;;;;;20.47;63.24;101913.16;4917172;29;2041;-76
2023/09/26 08:24:31;;;;;;;;;;;;;;;20.43;63.50;101910.06;4917840;29;2338;-75
2023/09/26 08:26:58;;;;;;;;;;;;;;;20.49;63.05;101913.31;4918695;29;2235;-76
2023/09/26 08:29:25;;;;;;;;;;;;;;;20.59;63.07;101904.59;4920875;29;1583;-76
2023/09/26 08:31:51;;;;;;;;;;;;;;;20.61;62.86;101904.69;4918244;29;6207;-76
2023/09/26 08:34:18;;;;;;;;;;;;;;;20.62;63.26;101914.84;4920313;29;2479;-76
2023/09/26 08:36:46;;;;;;;;;;;;;;;20.64;63.09;101906.34;4919535;29;2226;-75
2023/09/26 08:39:13;;;;;;;;;;;;;;;20.64;63.30;101905.59;4919951;29;1989;-77
2023/09/26 08:41:39;;;;;;;;;;;;;;;20.64;62.74;101909.22;4920478;29;2242;-76
2023/09/26 08:44:05;;;;;;;;;;;;;;;20.66;62.83;101911.47;4895890;29;1896;-76
2023/09/26 08:46:32;;;;;;;;;;;;;;;20.66;63.03;101908.56;4919665;29;2234;-76
2023/09/26 08:48:58;;;;;;;;;;;;;;;20.66;63.10;101897.84;4898171;29;1521;-76
2023/09/26 08:51:26;;;;;;;;;;;;;;;20.68;62.81;101905.81;4925011;29;1854;-76
2023/09/26 08:53:52;;;;;;;;;;;;;;;20.70;63.00;101903.09;4923862;29;1802;-76
2023/09/26 08:56:19;;;;;;;;;;;;;;;20.68;63.14;101905.81;4923867;29;2159;-76
2023/09/26 08:58:45;;;;;;;;;;;;;;;20.67;62.89;101902.22;4920497;29;2233;-76
2023/09/26 09:01:11;;;;;;;;;;;;;;;20.68;63.14;101900.06;4906201;29;6307;-77
2023/09/26 09:03:38;;;;;;;;;;;;;;;20.70;63.42;101903.09;4900213;29;2293;-77
2023/09/26 09:06:04;;;;;;;;;;;;;;;20.68;63.23;101905.81;4924330;29;1918;-76
2023/09/26 09:08:31;;;;;;;;;;;;;;;20.73;63.35;101901.84;4922425;29;2175;-76
2023/09/26 09:10:57;;;;;;;;;;;;;;;20.75;63.01;101904.81;4924021;29;1739;-76
2023/09/26 09:13:27;;;;;;;;;;;;;;;20.76;62.98;101900.59;4924457;29;1971;-76
2023/09/26 09:16:07;;;;;;;;;;;;;;;20.77;63.10;101904.22;4922409;29;2138;-76
2023/09/26 09:18:34;;;;;;;;;;;;;;;20.78;63.08;101900.72;4920861;29;2152;-76
2023/09/26 09:21:00;;;;;;;;;;;;;;;20.81;63.04;101904.47;4924736;29;1624;-76
2023/09/26 09:23:27;;;;;;;;;;;;;;;20.80;63.39;101897.97;4906168;29;2174;-77
2023/09/26 09:25:53;;;;;;;;;;;;;;;20.78;63.01;101897.84;4923494;29;2068;-76
2023/09/26 09:28:20;;;;;;;;;;;;;;;20.81;63.50;101895.81;4923192;29;2105;-76
2023/09/26 09:30:46;;;;;;;;;;;;;;;20.80;63.39;101894.31;4922031;29;6046;-76
2023/09/26 09:33:13;;;;;;;;;;;;;;;20.82;63.03;101886.56;4902586;29;1849;-76
2023/09/26 09:35:39;;;;;;;;;;;;;;;20.81;62.77;101879.31;4923910;29;1794;-74
2023/09/26 09:38:12;;;;;;;;;;;;;;;20.83;62.30;101881.56;4923154;29;2063;-76
2023/09/26 09:40:39;;;;;;;;;;;;;;;20.83;62.28;101873.66;4921365;29;2313;-78
2023/09/26 09:43:06;;;;;;;;;;;;;;;20.83;62.57;101875.81;4922687;29;1969;-78
2023/09/26 09:45:32;;;;;;;;;;;;;;;20.83;61.63;101870.78;4922206;29;2124;-78
2023/09/26 09:48:01;;;;;;;;;;;;;;;20.85;61.52;101868.03;4920443;29;2753;-78
2023/09/26 09:50:28;;;;;;;;;;;;;;;20.86;61.10;101869.53;4899993;29;2299;-78
2023/09/26 09:52:56;;;;;;;;;;;;;;;20.86;60.81;101858.00;4922092;29;2230;-78
2023/09/26 09:55:28;;;;;;;;;;;;;;;20.87;60.70;101858.78;4922821;29;2121;-78
2023/09/26 09:57:55;;;;;;;;;;;;;;;20.88;60.77;101860.25;4904143;29;2251;-78
2023/09/26 10:00:24;;;;;;;;;;;;;;;20.85;60.65;101864.41;4902072;29;6239;-78
2023/09/26 10:02:55;;;;;;;;;;;;;;;20.88;60.87;101849.50;4921747;29;2116;-76
2023/09/26 10:05:21;;;;;;;;;;;;;;;20.90;60.83;101855.38;4906764;29;1977;-77
2023/09/26 10:07:48;;;;;;;;;;;;;;;20.89;60.81;101851.00;4904904;29;2121;-78
2023/09/26 10:10:14;;;;;;;;;;;;;;;20.90;61.12;101840.22;4903032;29;2164;-77
2023/09/26 10:12:41;;;;;;;;;;;;;;;20.92;60.90;101851.88;4923776;29;1771;-78
2023/09/26 10:15:27;;;;;;;;;;;;;;;20.91;60.63;101847.47;4908655;29;1669;-78
2023/09/26 10:17:53;;;;;;;;;;;;;;;20.90;61.11;101840.97;4905430;29;2041;-77
2023/09/26 10:20:20;;;;;;;;;;;;;;;20.93;61.12;101839.72;4921803;29;2222;-79
2023/09/26 10:23:10;;;;;;;;;;;;;;;20.92;60.81;101838.22;4907662;29;2167;-78
2023/09/26 10:25:36;;;;;;;;;;;;;;;20.93;61.15;101833.22;4922812;29;2044;-78
2023/09/26 10:28:03;;;;;;;;;;;;;;;20.96;61.18;101837.72;4922035;29;1671;-77
2023/09/26 10:30:41;;;;;;;;;;;;;;;20.96;61.16;101834.06;4920066;29;6307;-77
2023/09/26 10:33:07;;;;;;;;;;;;;;;20.96;60.93;101831.97;4920583;29;2072;-78
2023/09/26 10:35:43;;;;;;;;;;;;;;;20.98;61.17;101817.69;4901351;29;1812;-77
2023/09/26 10:38:18;;;;;;;;;;;;;;;20.96;61.12;101820.44;4921771;29;2210;-78
2023/09/26 10:40:45;;;;;;;;;;;;;;;20.96;61.17;101811.81;4919734;29;2483;-78
2023/09/26 10:43:12;;;;;;;;;;;;;;;21.01;61.27;101821.44;4920182;29;2118;-78
2023/09/26 10:45:41;;;;;;;;;;;;;;;21.00;60.95;101814.16;4898843;29;2481;-77
2023/09/26 10:48:08;;;;;;;;;;;;;;;21.04;61.31;101823.06;4920954;29;2115;-79
2023/09/26 10:50:54;;;;;;;;;;;;;;;21.01;61.23;101816.44;4921024;29;2153;-77
2023/09/26 10:53:21;;;;;;;;;;;;;;;21.05;61.51;101815.91;4920449;29;2084;-78
2023/09/26 10:55:48;;;;;;;;;;;;;;;21.09;61.26;101807.50;4920633;29;2233;-79
2023/09/26 10:58:19;;;;;;;;;;;;;;;21.06;61.48;101808.78;4897416;29;2070;-79
2023/09/26 11:00:51;;;;;;;;;;;;;;;21.07;61.32;101805.28;4919922;29;6267;-78
2023/09/26 11:03:38;;;;;;;;;;;;;;;21.06;61.27;101803.00;4918891;29;2152;-79
2023/09/26 11:06:06;;;;;;;;;;;;;;;21.08;61.29;101791.63;4902833;29;2234;-78
2023/09/26 11:08:33;;;;;;;;;;;;;;;21.08;61.29;101801.00;4917630;29;2416;-74
2023/09/26 11:11:00;;;;;;;;;;;;;;;21.11;61.62;101810.50;4921201;29;2174;-74
2023/09/26 11:13:26;;;;;;;;;;;;;;;21.13;61.55;101811.38;4917341;29;2370;-73
2023/09/26 11:15:53;;;;;;;;;;;;;;;21.17;61.66;101805.09;4916750;29;2610;-78
2023/09/26 11:18:20;;;;;;;;;;;;;;;21.15;61.74;101796.34;4919562;29;2104;-75
2023/09/26 11:20:46;;;;;;;;;;;;;;;21.24;61.32;101803.34;4917132;29;2480;-77
2023/09/26 11:23:33;;;;;;;;;;;;;;;21.19;61.64;101796.59;4917121;29;2234;-77
2023/09/26 11:26:03;;;;;;;;;;;;;;;21.18;61.91;101795.06;4919250;29;2123;-77
2023/09/26 11:28:30;;;;;;;;;;;;;;;21.20;61.75;101786.56;4916185;29;2155;-76
2023/09/26 11:30:57;;;;;;;;;;;;;;;21.20;61.82;101786.56;4918939;29;6098;-76
2023/09/26 11:33:23;;;;;;;;;;;;;;;21.19;61.45;101785.06;4919344;29;2376;-77
2023/09/26 11:35:49;;;;;;;;;;;;;;;21.20;61.51;101786.56;4917300;29;2530;-76
2023/09/26 11:38:16;;;;;;;;;;;;;;;21.22;61.45;101780.91;4919079;29;2171;-77
2023/09/26 11:40:42;;;;;;;;;;;;;;;21.22;61.42;101772.28;4919863;29;2226;-77
2023/09/26 11:43:09;;;;;;;;;;;;;;;21.20;61.74;101769.25;4895860;29;2540;-76
2023/09/26 11:45:37;;;;;;;;;;;;;;;21.25;61.57;101764.50;4919753;29;2151;-77
2023/09/26 11:48:05;;;;;;;;;;;;;;;21.24;61.61;101760.88;4918017;29;2233;-77
2023/09/26 11:50:31;;;;;;;;;;;;;;;21.24;61.61;101763.75;4918956;29;2328;-76
2023/09/26 11:52:58;;;;;;;;;;;;;;;21.25;61.47;101759.47;4918451;29;2194;-77
2023/09/26 11:55:24;;;;;;;;;;;;;;;21.26;61.55;101755.22;4916968;29;2171;-77
2023/09/26 11:57:51;;;;;;;;;;;;;;;21.28;61.49;101748.81;4918907;29;2186;-77
2023/09/26 12:00:18;;;;;;;;;;;;;;;21.30;61.89;101749.69;4896093;29;6150;-73
2023/09/26 12:02:46;;;;;;;;;;;;;;;21.31;61.99;101756.94;4917856;29;2189;-63
2023/09/26 12:05:14;;;;;;;;;;;;;;;21.31;62.25;101756.94;4917782;29;2309;-69
2023/09/26 12:07:41;;;;;;;;;;;;;;;21.34;62.16;101749.16;4920614;29;2090;-69
2023/09/26 12:10:07;;;;;;;;;;;;;;;21.33;61.79;101747.69;4920558;29;1589;-69
2023/09/26 12:12:34;;;;;;;;;;;;;;;21.33;61.76;101748.41;4921469;29;2114;-69
2023/09/26 12:15:16;;;;;;;;;;;;;;;21.34;61.82;101738.38;4920775;29;1760;-69
2023/09/26 12:17:42;;;;;;;;;;;;;;;21.34;61.68;101744.16;4919880;29;1583;-69
2023/09/26 12:20:09;;;;;;;;;;;;;;;21.37;61.89;101729.84;4920903;29;1727;-69
2023/09/26 12:22:36;;;;;;;;;;;;;;;21.38;61.73;101726.34;4919963;29;2170;-69
2023/09/26 12:25:03;;;;;;;;;;;;;;;21.39;61.49;101732.84;4902746;29;1980;-69
2023/09/26 12:27:30;;;;;;;;;;;;;;;21.40;61.59;101725.72;4919946;29;1631;-69
2023/09/26 12:29:56;;;;;;;;;;;;;;;21.40;61.88;101726.50;4920840;29;1783;-69
2023/09/26 12:32:22;;;;;;;;;;;;;;;21.43;61.47;101721.59;4920107;29;6129;-69
2023/09/26 12:34:49;;;;;;;;;;;;;;;21.43;61.53;101712.94;4914334;29;2309;-69
2023/09/26 12:37:15;;;;;;;;;;;;;;;21.46;61.65;101715.31;4919949;29;2562;-69
2023/09/26 12:39:42;;;;;;;;;;;;;;;21.48;61.67;101717.53;4921122;29;2158;-69
2023/09/26 12:42:08;;;;;;;;;;;;;;;21.47;61.66;101716.06;4920136;29;2125;-70
2023/09/26 12:44:37;;;;;;;;;;;;;;;21.47;61.57;101707.41;4918435;29;2376;-69
2023/09/26 12:47:03;;;;;;;;;;;;;;;21.52;61.44;101712.00;4918853;29;2293;-70
2023/09/26 12:49:30;;;;;;;;;;;;;;;21.53;61.45;101701.97;4916143;29;2317;-70
2023/09/26 12:51:56;;;;;;;;;;;;;;;21.52;61.26;101706.97;4899911;29;2268;-71